< Cyclone 195507 1955 Season Cyclone 195510 >
Cyclone 195509 (unnamed)
General InformationTrack Information on Google Maps || ResourceGoogle EarthGE AnimationAtom FeedGeoJSON
Detalied Best Track (Time Zone = UTC)
Year Month Day Hour Lat. Long. Pressure (hPa) Wind (kt) Class Image Chart
1955 3 21 23 -10.9 164.0 1002 0 0 -- --
1955 3 22 23 -10.9 163.5 1001.5 0 0 -- --
1955 3 23 23 -10.9 160.0 1001 0 0 -- --
1955 3 24 23 -14.6 157.1 996 0 0 -- --
1955 3 25 23 -19.8 155.1 992 0 0 -- --
1955 3 26 23 -23.8 152.7 985 0 0 -- --
1955 3 27 05 -24.4 152.0 991 0 0 -- --
1955 3 27 14 -24.9 151.5 995 0 0 -- --
1955 3 27 23 -26.0 152.2 1001 0 0 -- --
1955 3 28 08 -26.9 153.1 1002 0 0 -- --
1955 3 28 20 -27.9 155.1 1002 0 0 -- --
1955 3 28 23 -28.1 157.0 1002 0 0 -- --
1955 3 29 23 -26.2 161.6 1006 0 0 -- --
1955 3 30 23 -23.1 165.0 998 0 0 -- --
1955 3 31 02 -22.9 165.5 998 0 0 -- --
1955 3 31 23 -22.9 164.8 993 0 0 -- --
1955 4 1 23 -22.9 162.5 1000 0 0 -- --
1955 4 2 06 -22.9 161.0 1000 0 0 -- --
1955 4 2 23 -23.7 158.7 1000 0 0 -- --
1955 4 3 23 -24.7 157.3 1002 0 0 -- --
1955 4 4 23 -25.0 156.8 1002 0 0 -- --
1955 4 5 11 -26.9 156.0 1003 0 0 -- --
1955 4 5 23 -29.9 157.6 1003 0 0 -- --
< Cyclone 195507 1955 Season Cyclone 195510 >

Help